createdAt,value
2023-05-10T00:00:10.109Z,80.53
2023-05-10T00:02:43.706Z,80.59
2023-05-10T00:05:10.234Z,80.28
2023-05-10T00:07:36.676Z,81.05
2023-05-10T00:10:03.252Z,80.38
2023-05-10T00:12:29.710Z,80.54
2023-05-10T00:14:56.170Z,80.54
2023-05-10T00:17:22.666Z,80.56
2023-05-10T00:19:49.219Z,81.05
2023-05-10T00:22:15.747Z,80.13
2023-05-10T00:24:42.214Z,80.10
2023-05-10T00:27:08.676Z,80.01
2023-05-10T00:29:35.164Z,79.90
2023-05-10T00:32:01.640Z,80.14
2023-05-10T00:34:28.173Z,80.21
2023-05-10T00:36:54.686Z,80.05
2023-05-10T00:39:21.132Z,80.05
2023-05-10T00:41:47.561Z,79.75
2023-05-10T00:44:14.104Z,79.75
2023-05-10T00:46:41.175Z,79.83
2023-05-10T00:49:07.696Z,79.05
2023-05-10T00:51:34.659Z,78.47
2023-05-10T00:54:01.262Z,78.86
2023-05-10T00:56:29.395Z,78.78
2023-05-10T00:58:56.383Z,79.00
2023-05-10T01:01:22.938Z,78.49
2023-05-10T01:03:49.652Z,78.30
2023-05-10T01:06:16.107Z,78.34
2023-05-10T01:08:42.699Z,78.72
2023-05-10T01:11:09.242Z,78.30
2023-05-10T01:13:38.859Z,77.82
2023-05-10T01:16:07.352Z,77.56
2023-05-10T01:18:38.996Z,78.10
2023-05-10T01:21:09.249Z,77.83
2023-05-10T01:23:40.870Z,77.86
2023-05-10T01:26:44.470Z,77.96
2023-05-10T01:29:19.749Z,77.92
2023-05-10T01:32:11.179Z,77.42
2023-05-10T01:34:53.335Z,77.44
2023-05-10T01:37:42.865Z,77.05
2023-05-10T01:40:29.343Z,78.53
2023-05-10T01:43:02.622Z,79.04
2023-05-10T01:45:38.323Z,78.73
2023-05-10T01:48:09.239Z,77.98
2023-05-10T01:50:38.354Z,77.43
2023-05-10T01:53:08.879Z,78.88
2023-05-10T01:55:40.618Z,79.33
2023-05-10T01:58:11.091Z,79.25
2023-05-10T02:00:42.085Z,79.04
2023-05-10T02:03:10.734Z,79.18
2023-05-10T02:05:39.692Z,78.62
2023-05-10T02:08:07.732Z,78.84
2023-05-10T02:10:37.903Z,77.98
2023-05-10T02:13:07.080Z,78.63
2023-05-10T02:15:36.102Z,79.11
2023-05-10T02:18:04.756Z,78.88
2023-05-10T02:20:33.205Z,79.17
2023-05-10T02:23:01.758Z,78.73
2023-05-10T02:25:29.595Z,77.96
2023-05-10T02:27:58.597Z,78.12
2023-05-10T02:30:25.975Z,78.15
2023-05-10T02:32:53.303Z,78.19
2023-05-10T02:35:20.272Z,77.86
2023-05-10T02:37:48.669Z,77.67
2023-05-10T02:40:18.578Z,77.66
2023-05-10T02:45:18.643Z,77.86
2023-05-10T02:47:45.157Z,78.25
2023-05-10T02:50:11.988Z,78.40
2023-05-10T02:52:48.666Z,78.68
2023-05-10T02:55:19.008Z,79.18
2023-05-10T02:58:01.303Z,79.79
2023-05-10T03:00:27.925Z,79.56
2023-05-10T03:02:54.513Z,79.27
2023-05-10T03:05:21.455Z,79.74
2023-05-10T03:07:48.694Z,79.47
2023-05-10T03:10:15.383Z,79.00
2023-05-10T03:13:03.033Z,79.34
2023-05-10T03:15:54.632Z,79.40
2023-05-10T03:18:28.468Z,78.95
2023-05-10T03:21:07.058Z,79.26
2023-05-10T03:23:41.994Z,78.45
2023-05-10T03:26:09.801Z,78.64
2023-05-10T03:28:37.519Z,78.58
2023-05-10T03:31:06.882Z,77.58
2023-05-10T03:33:34.065Z,78.12
2023-05-10T03:36:00.863Z,79.10
2023-05-10T03:38:29.043Z,78.26
2023-05-10T03:40:56.913Z,78.26
2023-05-10T03:43:23.388Z,78.18
2023-05-10T03:45:49.804Z,78.44
2023-05-10T03:48:16.268Z,78.77
2023-05-10T03:50:43.823Z,78.39
2023-05-10T03:53:10.350Z,78.66
2023-05-10T03:55:37.370Z,78.34
2023-05-10T03:58:03.829Z,78.52
2023-05-10T04:00:31.062Z,78.88
2023-05-10T04:02:57.628Z,78.61
2023-05-10T04:05:24.110Z,78.49
2023-05-10T04:07:52.632Z,78.26
2023-05-10T04:10:19.319Z,78.85
2023-05-10T04:12:45.990Z,79.16
2023-05-10T04:15:12.535Z,79.13
2023-05-10T04:17:39.014Z,79.21
2023-05-10T04:20:06.200Z,79.10
2023-05-10T04:22:33.126Z,79.29
2023-05-10T04:24:59.527Z,79.48
2023-05-10T04:27:25.976Z,79.51
2023-05-10T04:29:52.418Z,79.57
2023-05-10T04:32:18.840Z,79.33
2023-05-10T04:34:45.423Z,79.62
2023-05-10T04:37:11.877Z,78.71
2023-05-10T04:39:40.191Z,78.87
2023-05-10T04:42:08.109Z,78.21
2023-05-10T04:44:34.581Z,79.01
2023-05-10T04:47:01.068Z,77.22
2023-05-10T04:49:27.550Z,77.43
2023-05-10T04:51:53.944Z,76.74
2023-05-10T04:54:20.474Z,76.71
2023-05-10T04:56:46.862Z,76.50
2023-05-10T04:59:13.282Z,76.56
2023-05-10T05:01:40.398Z,77.06
2023-05-10T05:04:07.744Z,76.52
2023-05-10T05:06:34.175Z,76.36
2023-05-10T05:09:00.774Z,76.50
2023-05-10T05:11:27.220Z,76.96
2023-05-10T05:13:53.908Z,77.38
2023-05-10T05:16:20.368Z,77.66
2023-05-10T05:18:46.892Z,77.98
2023-05-10T05:21:17.642Z,77.98
2023-05-10T05:23:44.184Z,78.03
2023-05-10T05:26:10.790Z,77.43
2023-05-10T05:28:40.308Z,77.38
2023-05-10T05:31:08.508Z,77.38
2023-05-10T05:33:35.195Z,77.07
2023-05-10T05:36:03.246Z,77.52
2023-05-10T05:38:29.797Z,77.73
2023-05-10T05:40:56.341Z,77.66
2023-05-10T05:43:22.815Z,77.85
2023-05-10T05:45:49.327Z,77.25
2023-05-10T05:48:15.776Z,76.48
2023-05-10T05:50:42.218Z,77.13
2023-05-10T05:53:09.569Z,76.86
2023-05-10T05:55:36.345Z,76.86
2023-05-10T05:58:02.801Z,75.71
2023-05-10T06:00:29.374Z,75.84
2023-05-10T06:02:55.886Z,75.46
2023-05-10T06:05:22.649Z,73.65
2023-05-10T06:07:49.086Z,73.12
2023-05-10T06:10:15.745Z,73.02
2023-05-10T06:12:42.601Z,73.31
2023-05-10T06:15:09.789Z,74.21
2023-05-10T06:17:36.244Z,72.67
2023-05-10T06:20:02.810Z,72.54
2023-05-10T06:22:29.210Z,72.25
2023-05-10T06:24:55.612Z,71.09
2023-05-10T06:27:22.586Z,72.55
2023-05-10T06:29:52.090Z,71.91
2023-05-10T06:32:20.751Z,71.92
2023-05-10T06:34:47.351Z,72.13
2023-05-10T06:37:13.861Z,72.21
2023-05-10T06:39:40.258Z,72.93
2023-05-10T06:42:06.746Z,72.92
2023-05-10T06:44:33.392Z,72.58
2023-05-10T06:46:59.940Z,73.95
2023-05-10T06:49:26.319Z,74.33
2023-05-10T06:51:52.883Z,73.82
2023-05-10T06:54:19.289Z,73.94
2023-05-10T06:56:45.688Z,75.13
2023-05-10T06:59:13.450Z,75.31
2023-05-10T07:01:40.363Z,74.33
2023-05-10T07:04:08.522Z,75.06
2023-05-10T07:06:35.015Z,72.67
2023-05-10T07:09:01.763Z,71.99
2023-05-10T07:11:28.206Z,73.02
2023-05-10T07:13:54.657Z,74.62
2023-05-10T07:16:22.378Z,74.72
2023-05-10T07:18:48.928Z,74.24
2023-05-10T07:21:15.570Z,74.61
2023-05-10T07:23:43.671Z,73.59
2023-05-10T07:26:11.508Z,73.79
2023-05-10T07:28:38.506Z,73.76
2023-05-10T07:31:04.941Z,73.13
2023-05-10T07:33:31.381Z,72.17
2023-05-10T07:35:58.272Z,70.17
2023-05-10T07:38:24.709Z,70.55
2023-05-10T07:40:51.136Z,70.34
2023-05-10T07:43:17.617Z,71.75
2023-05-10T07:45:44.248Z,72.56
2023-05-10T07:48:10.888Z,74.12
2023-05-10T07:50:37.451Z,75.20
2023-05-10T07:53:03.856Z,73.67
2023-05-10T07:55:30.401Z,74.50
2023-05-10T07:57:57.161Z,75.25
2023-05-10T08:00:23.714Z,74.00
2023-05-10T08:02:50.375Z,74.56
2023-05-10T08:05:17.122Z,73.06
2023-05-10T08:07:43.923Z,72.75
2023-05-10T08:10:11.983Z,71.99
2023-05-10T08:12:39.137Z,70.85
2023-05-10T08:15:06.148Z,70.38
2023-05-10T08:17:32.673Z,70.30
2023-05-10T08:19:59.117Z,70.88
2023-05-10T08:22:25.535Z,71.18
2023-05-10T08:24:51.981Z,71.63
2023-05-10T08:27:18.400Z,71.64
2023-05-10T08:29:49.961Z,69.91
2023-05-10T08:32:17.119Z,69.51
2023-05-10T08:34:43.550Z,69.62
2023-05-10T08:37:11.394Z,71.80
2023-05-10T08:39:38.427Z,71.12
2023-05-10T08:42:06.213Z,69.50
2023-05-10T08:44:37.294Z,70.75
2023-05-10T08:47:07.457Z,68.97
2023-05-10T08:49:34.922Z,70.02
2023-05-10T08:52:05.072Z,69.64
2023-05-10T08:54:33.077Z,69.15
2023-05-10T08:56:59.603Z,68.52
2023-05-10T08:59:26.175Z,68.31
2023-05-10T09:01:54.997Z,67.89
2023-05-10T09:04:22.196Z,66.76
2023-05-10T09:06:48.933Z,66.80
2023-05-10T09:09:17.087Z,66.26
2023-05-10T09:11:44.458Z,65.02
2023-05-10T09:14:11.501Z,65.98
2023-05-10T09:16:38.557Z,64.51
2023-05-10T09:19:05.174Z,65.50
2023-05-10T09:21:32.020Z,64.03
2023-05-10T09:24:04.137Z,63.37
2023-05-10T09:26:30.656Z,65.06
2023-05-10T09:28:59.747Z,64.42
2023-05-10T09:31:44.916Z,64.71
2023-05-10T09:34:11.434Z,64.12
2023-05-10T09:36:38.147Z,61.47
2023-05-10T09:39:05.073Z,61.63
2023-05-10T09:41:31.500Z,61.94
2023-05-10T09:43:57.958Z,61.76
2023-05-10T09:46:24.456Z,60.14
2023-05-10T09:48:50.938Z,62.52
2023-05-10T09:51:21.248Z,61.19
2023-05-10T09:53:47.761Z,60.15
2023-05-10T09:56:15.255Z,61.49
2023-05-10T09:58:41.689Z,63.33
2023-05-10T10:01:13.124Z,63.34
2023-05-10T10:03:44.171Z,64.94
2023-05-10T10:06:18.756Z,64.88
2023-05-10T10:08:49.742Z,65.63
2023-05-10T10:11:16.445Z,66.83
2023-05-10T10:13:43.438Z,67.13
2023-05-10T10:16:10.415Z,66.50
2023-05-10T10:18:40.851Z,69.07
2023-05-10T10:21:09.140Z,67.97
2023-05-10T10:23:36.243Z,69.17
2023-05-10T10:26:05.210Z,68.39
2023-05-10T10:28:46.423Z,67.77
2023-05-10T10:31:25.459Z,66.67
2023-05-10T10:34:06.441Z,66.90
2023-05-10T10:36:34.808Z,66.61
2023-05-10T10:39:02.418Z,67.19
2023-05-10T10:41:36.907Z,64.93
2023-05-10T10:44:28.872Z,65.33
2023-05-10T10:47:09.346Z,66.55
2023-05-10T10:49:42.431Z,66.05
2023-05-10T10:52:24.314Z,64.80
2023-05-10T10:54:59.195Z,65.22
2023-05-10T10:57:27.407Z,63.66
2023-05-10T11:00:19.996Z,63.17
2023-05-10T11:02:49.701Z,63.59
2023-05-10T11:05:25.804Z,61.36
2023-05-10T11:07:56.053Z,60.86
2023-05-10T11:10:23.961Z,60.40
2023-05-10T11:13:06.739Z,63.61
2023-05-10T11:15:35.040Z,60.86
2023-05-10T11:18:27.323Z,60.04
2023-05-10T11:21:05.924Z,59.07
2023-05-10T11:23:44.236Z,60.48
2023-05-10T11:26:10.706Z,59.25
2023-05-10T11:28:47.884Z,58.05
2023-05-10T11:31:18.609Z,57.17
2023-05-10T11:33:47.470Z,57.86
2023-05-10T11:36:17.435Z,54.49
2023-05-10T11:38:44.156Z,57.20
2023-05-10T11:41:12.385Z,52.54
2023-05-10T11:43:42.838Z,54.88
2023-05-10T11:46:12.382Z,54.52
2023-05-10T11:48:42.994Z,56.64
2023-05-10T11:51:10.904Z,54.63
2023-05-10T11:53:37.786Z,53.09
2023-05-10T11:56:06.411Z,54.79
2023-05-10T11:58:34.036Z,56.12
2023-05-10T12:01:01.338Z,57.93
2023-05-10T12:03:29.181Z,58.43
2023-05-10T12:05:56.909Z,59.04
2023-05-10T12:08:25.798Z,60.29
2023-05-10T12:10:53.245Z,58.51
2023-05-10T12:13:21.935Z,53.23
2023-05-10T12:15:48.396Z,53.28
2023-05-10T12:18:15.777Z,54.27
2023-05-10T12:20:42.367Z,53.68
2023-05-10T12:23:10.851Z,54.39
2023-05-10T12:25:38.700Z,54.59
2023-05-10T12:28:09.791Z,54.50
2023-05-10T12:30:37.389Z,55.00
2023-05-10T12:33:16.139Z,55.01
2023-05-10T12:35:53.354Z,53.93
2023-05-10T12:38:38.773Z,51.71
2023-05-10T12:41:07.906Z,52.97
2023-05-10T12:43:35.458Z,50.51
2023-05-10T12:46:18.089Z,52.00
2023-05-10T12:48:45.591Z,52.77
2023-05-10T12:51:18.052Z,53.74
2023-05-10T12:53:48.726Z,56.52
2023-05-10T12:56:16.243Z,56.24
2023-05-10T12:58:42.699Z,57.78
2023-05-10T13:01:09.419Z,58.47
2023-05-10T13:03:35.890Z,57.86
2023-05-10T13:06:03.287Z,56.50
2023-05-10T13:08:34.078Z,56.43
2023-05-10T13:11:01.434Z,53.52
2023-05-10T13:13:27.850Z,52.83
2023-05-10T13:15:54.270Z,53.01
2023-05-10T13:18:21.390Z,50.07
2023-05-10T13:20:47.891Z,48.20
2023-05-10T13:23:14.352Z,47.73
2023-05-10T13:25:40.907Z,47.36
2023-05-10T13:28:07.339Z,49.26
2023-05-10T13:30:33.771Z,50.88
2023-05-10T13:33:00.379Z,52.95
2023-05-10T13:35:26.955Z,53.05
2023-05-10T13:37:54.452Z,52.48
2023-05-10T13:40:20.913Z,51.34
2023-05-10T13:42:47.340Z,52.12
2023-05-10T13:45:14.170Z,52.07
2023-05-10T13:47:40.685Z,50.97
2023-05-10T13:50:07.781Z,52.85
2023-05-10T13:52:34.308Z,54.52
2023-05-10T13:55:01.006Z,53.07
2023-05-10T13:57:27.630Z,56.33
2023-05-10T13:59:55.881Z,55.63
2023-05-10T14:02:24.142Z,57.69
2023-05-10T14:04:50.704Z,58.42
2023-05-10T14:07:17.196Z,56.47
2023-05-10T14:09:43.708Z,55.84
2023-05-10T14:12:10.185Z,55.84
2023-05-10T14:14:36.760Z,53.24
2023-05-10T14:17:03.219Z,53.39
2023-05-10T14:19:31.648Z,52.59
2023-05-10T14:21:58.061Z,51.69
2023-05-10T14:24:24.513Z,51.14
2023-05-10T14:26:54.512Z,50.70
2023-05-10T14:29:22.146Z,50.10
2023-05-10T14:31:48.819Z,50.54
2023-05-10T14:34:15.721Z,51.41
2023-05-10T14:36:42.182Z,50.75
2023-05-10T14:39:10.758Z,49.58
2023-05-10T14:41:38.044Z,46.88
2023-05-10T14:44:04.528Z,48.62
2023-05-10T14:46:31.034Z,47.52
2023-05-10T14:48:57.513Z,48.42
2023-05-10T14:51:23.960Z,50.42
2023-05-10T14:53:50.524Z,50.11
2023-05-10T14:56:17.008Z,49.30
2023-05-10T14:58:43.392Z,50.19
2023-05-10T15:01:09.870Z,50.23
2023-05-10T15:03:36.816Z,51.48
2023-05-10T15:06:04.906Z,51.35
2023-05-10T15:08:31.389Z,52.10
2023-05-10T15:10:57.887Z,51.15
2023-05-10T15:13:24.308Z,49.26
2023-05-10T15:15:50.938Z,47.96
2023-05-10T15:18:17.885Z,48.18
2023-05-10T15:20:44.673Z,49.04
2023-05-10T15:23:11.269Z,50.37
2023-05-10T15:25:38.475Z,49.77
2023-05-10T15:28:05.503Z,49.05
2023-05-10T15:30:32.090Z,49.79
2023-05-10T15:32:58.579Z,50.18
2023-05-10T15:35:26.642Z,49.79
2023-05-10T15:37:53.264Z,51.18
2023-05-10T15:40:20.313Z,49.91
2023-05-10T15:42:46.831Z,49.10
2023-05-10T15:45:13.906Z,48.38
2023-05-10T15:47:40.568Z,47.89
2023-05-10T15:50:08.279Z,47.91
2023-05-10T15:52:34.979Z,47.61
2023-05-10T15:55:01.407Z,47.61
2023-05-10T15:57:27.836Z,46.99
2023-05-10T15:59:54.829Z,47.29
2023-05-10T16:02:22.679Z,46.51
2023-05-10T16:04:49.858Z,47.96
2023-05-10T16:07:16.566Z,47.43
2023-05-10T16:09:43.131Z,47.93
2023-05-10T16:12:09.783Z,49.08
2023-05-10T16:14:36.583Z,51.06
2023-05-10T16:17:04.310Z,49.94
2023-05-10T16:19:31.419Z,50.80
2023-05-10T16:21:58.179Z,50.60
2023-05-10T16:24:25.843Z,51.36
2023-05-10T16:26:52.500Z,51.75
2023-05-10T16:29:19.276Z,51.53
2023-05-10T16:31:46.376Z,51.12
2023-05-10T16:34:13.169Z,51.55
2023-05-10T16:36:39.992Z,51.86
2023-05-10T16:39:06.727Z,52.25
2023-05-10T16:41:34.597Z,53.76
2023-05-10T16:44:03.709Z,55.22
2023-05-10T16:46:30.429Z,56.35
2023-05-10T16:48:57.089Z,55.93
2023-05-10T16:51:23.758Z,55.83
2023-05-10T16:53:50.455Z,56.41
2023-05-10T16:56:18.400Z,56.41
2023-05-10T16:58:44.874Z,55.25
2023-05-10T17:01:11.386Z,54.87
2023-05-10T17:03:37.995Z,53.57
2023-05-10T17:06:05.914Z,53.85
2023-05-10T17:08:32.862Z,53.98
2023-05-10T17:11:03.886Z,55.72
2023-05-10T17:13:31.873Z,56.47
2023-05-10T17:15:58.505Z,57.36
2023-05-10T17:18:26.599Z,57.36
2023-05-10T17:20:53.257Z,57.95
2023-05-10T17:23:19.938Z,59.28
2023-05-10T17:25:46.507Z,59.12
2023-05-10T17:28:12.962Z,58.97
2023-05-10T17:30:39.538Z,59.58
2023-05-10T17:33:06.170Z,58.74
2023-05-10T17:35:32.666Z,60.00
2023-05-10T17:37:59.101Z,60.95
2023-05-10T17:40:25.945Z,61.57
2023-05-10T17:42:52.675Z,61.83
2023-05-10T17:45:19.520Z,62.17
2023-05-10T17:47:46.503Z,62.48
2023-05-10T17:50:13.155Z,62.75
2023-05-10T17:52:39.667Z,62.78
2023-05-10T17:55:06.789Z,63.10
2023-05-10T17:57:33.490Z,63.96
2023-05-10T18:00:00.208Z,64.39
2023-05-10T18:02:26.776Z,64.38
2023-05-10T18:04:53.420Z,65.20
2023-05-10T18:07:22.078Z,63.97
2023-05-10T18:09:48.629Z,61.59
2023-05-10T18:12:15.267Z,60.79
2023-05-10T18:14:41.950Z,62.05
2023-05-10T18:17:09.651Z,62.82
2023-05-10T18:19:36.308Z,63.33
2023-05-10T18:22:03.257Z,64.26
2023-05-10T18:24:39.018Z,64.73
2023-05-10T18:27:08.304Z,65.06
2023-05-10T18:29:35.110Z,64.73
2023-05-10T18:32:01.572Z,65.48
2023-05-10T18:34:28.738Z,65.85
2023-05-10T18:36:55.478Z,66.40
2023-05-10T18:39:22.291Z,66.33
2023-05-10T18:41:50.184Z,67.22
2023-05-10T18:44:16.791Z,67.41
2023-05-10T18:46:43.638Z,67.47
2023-05-10T18:49:10.299Z,68.81
2023-05-10T18:51:36.871Z,68.09
2023-05-10T18:54:03.579Z,68.11
2023-05-10T18:56:30.363Z,68.68
2023-05-10T18:58:56.934Z,68.54
2023-05-10T19:01:23.492Z,67.95
2023-05-10T19:03:50.050Z,67.55
2023-05-10T19:06:16.694Z,69.01
2023-05-10T19:08:43.326Z,69.24
2023-05-10T19:11:09.966Z,69.06
2023-05-10T19:13:36.624Z,69.60
2023-05-10T19:16:06.796Z,69.50
2023-05-10T19:18:34.091Z,69.95
2023-05-10T19:21:04.544Z,69.61
2023-05-10T19:23:35.656Z,69.61
2023-05-10T19:26:02.411Z,69.89
2023-05-10T19:28:28.992Z,69.52
2023-05-10T19:30:55.523Z,69.75
2023-05-10T19:33:22.366Z,69.53
2023-05-10T19:35:52.459Z,70.03
2023-05-10T19:38:25.517Z,70.06
2023-05-10T19:40:59.267Z,70.02
2023-05-10T19:43:27.386Z,70.52
2023-05-10T19:45:54.778Z,70.09
2023-05-10T19:48:21.243Z,70.67
2023-05-10T19:50:47.691Z,71.08
2023-05-10T19:53:14.258Z,70.82
2023-05-10T19:55:40.709Z,70.76
2023-05-10T19:58:07.137Z,71.32
2023-05-10T20:00:33.618Z,70.85
2023-05-10T20:03:00.211Z,70.04
2023-05-10T20:05:26.947Z,70.31
2023-05-10T20:07:53.526Z,70.43
2023-05-10T20:10:21.974Z,70.10
2023-05-10T20:12:51.539Z,70.19
2023-05-10T20:15:20.177Z,69.26
2023-05-10T20:17:47.443Z,69.88
2023-05-10T20:20:15.933Z,70.49
2023-05-10T20:22:46.319Z,70.76
2023-05-10T20:25:13.632Z,70.54
2023-05-10T20:27:40.238Z,70.39
2023-05-10T20:30:07.620Z,69.73
2023-05-10T20:32:34.527Z,70.02
2023-05-10T20:35:01.439Z,70.04
2023-05-10T20:37:28.576Z,70.55
2023-05-10T20:39:55.491Z,69.40
2023-05-10T20:42:22.802Z,69.68
2023-05-10T20:44:50.247Z,69.24
2023-05-10T20:47:17.350Z,69.57
2023-05-10T20:49:43.866Z,70.33
2023-05-10T20:52:10.387Z,70.16
2023-05-10T20:54:36.818Z,70.39
2023-05-10T20:57:03.430Z,69.33
2023-05-10T20:59:29.927Z,69.43
2023-05-10T21:01:57.230Z,69.47
2023-05-10T21:04:24.535Z,69.59
2023-05-10T21:06:51.890Z,69.36
2023-05-10T21:09:18.342Z,70.40
2023-05-10T21:11:44.863Z,70.62
2023-05-10T21:14:11.292Z,70.41
2023-05-10T21:16:37.902Z,71.15
2023-05-10T21:19:04.461Z,71.30
2023-05-10T21:21:31.014Z,70.85
2023-05-10T21:23:57.417Z,71.11
2023-05-10T21:26:23.925Z,71.20
2023-05-10T21:28:50.466Z,70.83
2023-05-10T21:31:16.914Z,71.53
2023-05-10T21:33:43.632Z,71.58
2023-05-10T21:36:10.145Z,71.57
2023-05-10T21:38:36.650Z,71.97
2023-05-10T21:41:06.933Z,71.81
2023-05-10T21:43:33.656Z,71.60
2023-05-10T21:46:00.257Z,71.63
2023-05-10T21:48:26.756Z,72.05
2023-05-10T21:50:53.251Z,72.32
2023-05-10T21:53:19.722Z,72.13
2023-05-10T21:55:46.208Z,72.12
2023-05-10T21:58:12.749Z,71.98
2023-05-10T22:00:39.302Z,72.46
2023-05-10T22:03:05.913Z,72.40
2023-05-10T22:05:32.404Z,72.21
2023-05-10T22:07:58.875Z,72.50
2023-05-10T22:10:25.423Z,72.58
2023-05-10T22:12:51.931Z,72.97
2023-05-10T22:15:18.554Z,72.84
2023-05-10T22:17:45.032Z,72.55
2023-05-10T22:20:11.734Z,72.24
2023-05-10T22:22:38.183Z,72.62
2023-05-10T22:25:07.809Z,72.37
2023-05-10T22:27:34.683Z,72.65
2023-05-10T22:30:01.490Z,72.42
2023-05-10T22:32:28.330Z,72.67
2023-05-10T22:34:54.923Z,73.14
2023-05-10T22:37:21.353Z,73.06
2023-05-10T22:39:48.697Z,73.10
2023-05-10T22:42:15.848Z,73.46
2023-05-10T22:44:43.290Z,73.15
2023-05-10T22:47:09.816Z,73.75
2023-05-10T22:49:36.261Z,73.71
2023-05-10T22:52:02.717Z,73.58
2023-05-10T22:54:29.120Z,73.57
2023-05-10T22:56:56.487Z,73.52
2023-05-10T22:59:23.349Z,73.49
2023-05-10T23:01:50.043Z,73.49
2023-05-10T23:04:16.605Z,74.02
2023-05-10T23:06:43.058Z,73.60
2023-05-10T23:09:09.774Z,74.09
2023-05-10T23:11:36.506Z,73.86
2023-05-10T23:14:03.153Z,74.00
2023-05-10T23:16:29.653Z,73.87
2023-05-10T23:18:56.193Z,73.71
2023-05-10T23:21:22.723Z,74.00
2023-05-10T23:23:49.325Z,73.69
2023-05-10T23:26:16.271Z,74.08
2023-05-10T23:28:42.751Z,74.30
2023-05-10T23:31:09.222Z,74.47
2023-05-10T23:33:35.676Z,73.84
2023-05-10T23:36:02.073Z,74.34
2023-05-10T23:38:28.507Z,74.65
2023-05-10T23:40:54.961Z,74.35
2023-05-10T23:43:21.756Z,74.18
2023-05-10T23:45:57.823Z,74.17
2023-05-10T23:48:24.390Z,74.83
2023-05-10T23:50:50.975Z,74.93
2023-05-10T23:53:17.408Z,75.22
2023-05-10T23:55:44.268Z,75.49
2023-05-10T23:58:10.713Z,75.59
